createdAt,value
2023-05-10T00:00:10.102Z,10.97
2023-05-10T00:02:43.676Z,8.53
2023-05-10T00:05:10.268Z,6.10
2023-05-10T00:07:36.708Z,7.00
2023-05-10T00:10:03.326Z,7.87
2023-05-10T00:12:29.841Z,8.43
2023-05-10T00:14:56.294Z,7.17
2023-05-10T00:17:22.762Z,6.33
2023-05-10T00:19:49.241Z,8.00
2023-05-10T00:22:15.752Z,6.30
2023-05-10T00:24:42.204Z,12.60
2023-05-10T00:27:08.739Z,6.07
2023-05-10T00:29:35.217Z,5.30
2023-05-10T00:32:01.732Z,5.20
2023-05-10T00:34:28.294Z,6.63
2023-05-10T00:36:55.017Z,9.10
2023-05-10T00:39:21.585Z,7.30
2023-05-10T00:41:48.050Z,5.40
2023-05-10T00:44:15.500Z,6.93
2023-05-10T00:46:42.401Z,7.20
2023-05-10T00:49:09.128Z,4.67
2023-05-10T00:51:36.541Z,6.67
2023-05-10T00:54:03.701Z,5.63
2023-05-10T00:56:30.786Z,6.30
2023-05-10T00:58:58.221Z,6.33
2023-05-10T01:01:24.998Z,8.10
2023-05-10T01:03:52.139Z,7.93
2023-05-10T01:06:18.662Z,6.33
2023-05-10T01:08:46.710Z,6.33
2023-05-10T01:11:13.194Z,8.43
2023-05-10T01:13:42.364Z,6.77
2023-05-10T01:16:09.156Z,6.40
2023-05-10T01:18:45.514Z,9.33
2023-05-10T01:21:17.430Z,12.43
2023-05-10T01:24:01.065Z,8.77
2023-05-10T01:26:46.451Z,7.90
2023-05-10T01:29:23.771Z,8.67
2023-05-10T01:32:41.150Z,7.83
2023-05-10T01:35:09.676Z,7.40
2023-05-10T01:37:42.366Z,10.23
2023-05-10T01:40:11.440Z,7.20
2023-05-10T01:42:43.783Z,7.37
2023-05-10T01:45:22.727Z,5.93
2023-05-10T01:48:00.246Z,7.07
2023-05-10T01:50:30.408Z,7.53
2023-05-10T01:52:58.679Z,7.43
2023-05-10T01:55:28.761Z,6.60
2023-05-10T01:58:01.491Z,5.83
2023-05-10T02:00:28.766Z,5.10
2023-05-10T02:02:55.367Z,7.17
2023-05-10T02:05:22.742Z,11.77
2023-05-10T02:07:50.369Z,6.70
2023-05-10T02:10:17.243Z,6.50
2023-05-10T02:12:47.150Z,9.57
2023-05-10T02:15:17.728Z,7.90
2023-05-10T02:17:44.329Z,6.73
2023-05-10T02:20:11.639Z,6.97
2023-05-10T02:22:39.067Z,8.77
2023-05-10T02:25:06.437Z,6.03
2023-05-10T02:27:33.172Z,11.70
2023-05-10T02:29:59.845Z,7.20
2023-05-10T02:32:27.880Z,6.23
2023-05-10T02:34:55.735Z,6.70
2023-05-10T02:37:22.683Z,6.63
2023-05-10T02:39:50.493Z,11.97
2023-05-10T02:42:23.696Z,6.87
2023-05-10T02:44:52.287Z,6.00
2023-05-10T02:47:19.386Z,7.53
2023-05-10T02:49:46.537Z,9.03
2023-05-10T02:52:15.648Z,5.90
2023-05-10T02:54:45.522Z,7.63
2023-05-10T02:57:17.182Z,6.57
2023-05-10T02:59:44.021Z,6.47
2023-05-10T03:02:11.261Z,5.70
2023-05-10T03:04:37.816Z,6.80
2023-05-10T03:07:04.783Z,6.53
2023-05-10T03:09:32.216Z,6.10
2023-05-10T03:12:12.910Z,7.90
2023-05-10T03:14:55.074Z,8.57
2023-05-10T03:17:37.619Z,6.87
2023-05-10T03:20:08.661Z,7.67
2023-05-10T03:22:41.003Z,6.40
2023-05-10T03:25:09.341Z,7.83
2023-05-10T03:27:37.725Z,8.80
2023-05-10T03:30:06.449Z,6.93
2023-05-10T03:32:35.622Z,6.30
2023-05-10T03:35:07.029Z,8.33
2023-05-10T03:37:33.755Z,6.50
2023-05-10T03:40:00.422Z,7.30
2023-05-10T03:42:26.902Z,10.10
2023-05-10T03:44:53.398Z,8.77
2023-05-10T03:47:19.881Z,7.33
2023-05-10T03:49:46.657Z,7.13
2023-05-10T03:52:13.344Z,7.20
2023-05-10T03:54:39.839Z,8.53
2023-05-10T03:57:06.333Z,10.33
2023-05-10T03:59:32.837Z,8.40
2023-05-10T04:01:59.438Z,9.37
2023-05-10T04:04:25.944Z,7.33
2023-05-10T04:06:52.371Z,10.87
2023-05-10T04:09:19.476Z,10.00
2023-05-10T04:11:46.018Z,7.13
2023-05-10T04:14:12.570Z,6.80
2023-05-10T04:16:39.045Z,8.70
2023-05-10T04:19:05.503Z,9.00
2023-05-10T04:21:32.040Z,9.00
2023-05-10T04:23:58.503Z,7.10
2023-05-10T04:26:26.404Z,7.57
2023-05-10T04:28:52.875Z,7.90
2023-05-10T04:31:19.419Z,9.30
2023-05-10T04:33:45.999Z,8.67
2023-05-10T04:36:12.484Z,12.17
2023-05-10T04:38:39.029Z,9.10
2023-05-10T04:41:09.401Z,8.17
2023-05-10T04:43:36.369Z,10.93
2023-05-10T04:46:03.332Z,10.23
2023-05-10T04:48:30.144Z,7.23
2023-05-10T04:50:57.306Z,9.80
2023-05-10T04:53:23.844Z,9.67
2023-05-10T04:55:50.323Z,10.57
2023-05-10T04:58:17.003Z,9.30
2023-05-10T05:00:43.635Z,9.67
2023-05-10T05:03:10.651Z,9.33
2023-05-10T05:05:37.229Z,8.47
2023-05-10T05:08:03.865Z,9.83
2023-05-10T05:10:30.883Z,14.50
2023-05-10T05:12:57.451Z,8.03
2023-05-10T05:15:24.080Z,9.50
2023-05-10T05:17:50.556Z,9.80
2023-05-10T05:20:17.424Z,10.83
2023-05-10T05:22:44.213Z,10.87
2023-05-10T05:25:10.774Z,8.40
2023-05-10T05:27:37.224Z,10.97
2023-05-10T05:30:04.119Z,9.60
2023-05-10T05:32:31.395Z,9.63
2023-05-10T05:34:57.919Z,13.20
2023-05-10T05:37:25.401Z,9.07
2023-05-10T05:39:52.210Z,12.17
2023-05-10T05:42:22.115Z,9.07
2023-05-10T05:44:48.653Z,10.43
2023-05-10T05:47:15.140Z,9.63
2023-05-10T05:49:41.682Z,11.40
2023-05-10T05:52:08.127Z,11.17
2023-05-10T05:54:34.630Z,10.37
2023-05-10T05:57:01.730Z,12.43
2023-05-10T05:59:28.419Z,11.83
2023-05-10T06:01:55.096Z,9.87
2023-05-10T06:04:21.650Z,9.90
2023-05-10T06:06:48.244Z,11.83
2023-05-10T06:09:14.761Z,10.80
2023-05-10T06:11:41.235Z,13.93
2023-05-10T06:14:08.803Z,12.67
2023-05-10T06:16:35.937Z,12.37
2023-05-10T06:19:03.184Z,13.13
2023-05-10T06:21:29.854Z,11.20
2023-05-10T06:23:56.358Z,11.93
2023-05-10T06:26:22.854Z,12.10
2023-05-10T06:28:49.319Z,10.97
2023-05-10T06:31:16.083Z,11.73
2023-05-10T06:33:42.809Z,12.67
2023-05-10T06:36:09.494Z,11.90
2023-05-10T06:38:35.938Z,12.00
2023-05-10T06:41:02.726Z,12.90
2023-05-10T06:43:29.772Z,10.77
2023-05-10T06:45:56.940Z,10.80
2023-05-10T06:48:23.708Z,10.73
2023-05-10T06:50:50.403Z,11.23
2023-05-10T06:53:17.148Z,11.83
2023-05-10T06:55:44.372Z,14.37
2023-05-10T06:58:10.889Z,11.80
2023-05-10T07:00:41.311Z,12.23
2023-05-10T07:03:08.148Z,13.90
2023-05-10T07:05:34.857Z,11.80
2023-05-10T07:08:01.880Z,10.60
2023-05-10T07:10:28.334Z,11.80
2023-05-10T07:12:54.900Z,13.50
2023-05-10T07:15:21.519Z,12.27
2023-05-10T07:17:48.023Z,12.80
2023-05-10T07:20:14.556Z,11.57
2023-05-10T07:22:41.099Z,9.40
2023-05-10T07:25:07.854Z,12.00
2023-05-10T07:27:34.337Z,10.80
2023-05-10T07:30:03.533Z,14.33
2023-05-10T07:32:30.129Z,12.47
2023-05-10T07:34:56.691Z,12.70
2023-05-10T07:37:23.150Z,12.13
2023-05-10T07:39:49.587Z,10.67
2023-05-10T07:42:16.045Z,11.53
2023-05-10T07:44:42.797Z,10.70
2023-05-10T07:47:09.358Z,11.13
2023-05-10T07:49:36.647Z,13.20
2023-05-10T07:52:04.172Z,10.67
2023-05-10T07:54:30.755Z,12.50
2023-05-10T07:56:57.187Z,12.20
2023-05-10T07:59:23.628Z,12.70
2023-05-10T08:01:50.138Z,11.13
2023-05-10T08:04:17.034Z,11.33
2023-05-10T08:06:43.500Z,10.40
2023-05-10T08:09:10.027Z,13.77
2023-05-10T08:11:36.548Z,11.53
2023-05-10T08:14:03.077Z,10.43
2023-05-10T08:16:29.932Z,10.07
2023-05-10T08:18:56.645Z,10.97
2023-05-10T08:21:23.168Z,13.70
2023-05-10T08:23:50.078Z,9.60
2023-05-10T08:26:16.574Z,10.10
2023-05-10T08:28:43.116Z,16.67
2023-05-10T08:31:09.600Z,10.60
2023-05-10T08:33:36.117Z,11.10
2023-05-10T08:36:02.586Z,11.80
2023-05-10T08:38:29.119Z,10.37
2023-05-10T08:40:59.966Z,9.73
2023-05-10T08:43:29.539Z,10.07
2023-05-10T08:45:57.509Z,10.73
2023-05-10T08:48:25.922Z,11.10
2023-05-10T08:50:55.957Z,12.03
2023-05-10T08:53:27.589Z,11.30
2023-05-10T08:55:54.057Z,10.97
2023-05-10T08:58:21.287Z,10.60
2023-05-10T09:00:49.224Z,12.07
2023-05-10T09:03:15.907Z,11.23
2023-05-10T09:05:42.911Z,11.30
2023-05-10T09:08:09.625Z,10.60
2023-05-10T09:10:36.521Z,13.07
2023-05-10T09:13:03.211Z,11.30
2023-05-10T09:15:29.660Z,13.47
2023-05-10T09:17:56.815Z,11.47
2023-05-10T09:20:23.526Z,12.17
2023-05-10T09:22:50.610Z,11.77
2023-05-10T09:25:17.695Z,10.53
2023-05-10T09:27:48.483Z,10.77
2023-05-10T09:30:25.169Z,10.20
2023-05-10T09:32:51.805Z,12.40
2023-05-10T09:35:20.301Z,10.13
2023-05-10T09:37:48.983Z,11.70
2023-05-10T09:40:25.871Z,10.83
2023-05-10T09:42:59.071Z,11.00
2023-05-10T09:45:27.299Z,9.83
2023-05-10T09:47:53.890Z,11.23
2023-05-10T09:50:21.360Z,10.67
2023-05-10T09:52:48.641Z,10.33
2023-05-10T09:55:16.061Z,11.43
2023-05-10T09:57:42.818Z,10.33
2023-05-10T10:00:11.110Z,14.83
2023-05-10T10:02:40.329Z,9.77
2023-05-10T10:05:08.008Z,10.40
2023-05-10T10:07:35.410Z,10.70
2023-05-10T10:10:02.050Z,9.23
2023-05-10T10:12:28.915Z,8.80
2023-05-10T10:14:56.242Z,8.87
2023-05-10T10:17:22.714Z,9.67
2023-05-10T10:19:49.411Z,7.07
2023-05-10T10:22:15.936Z,7.97
2023-05-10T10:24:42.601Z,7.50
2023-05-10T10:27:26.209Z,6.93
2023-05-10T10:30:22.772Z,6.53
2023-05-10T10:33:24.311Z,6.00
2023-05-10T10:35:55.604Z,5.20
2023-05-10T10:38:22.897Z,5.60
2023-05-10T10:40:49.430Z,5.47
2023-05-10T10:43:24.146Z,4.90
2023-05-10T10:46:10.713Z,6.87
2023-05-10T10:48:37.148Z,5.43
2023-05-10T10:51:03.903Z,5.87
2023-05-10T10:53:30.494Z,6.10
2023-05-10T10:56:07.529Z,6.77
2023-05-10T10:58:35.148Z,6.80
2023-05-10T11:01:18.572Z,10.03
2023-05-10T11:04:03.515Z,6.50
2023-05-10T11:06:36.926Z,6.43
2023-05-10T11:09:08.596Z,5.53
2023-05-10T11:11:49.952Z,7.73
2023-05-10T11:14:21.353Z,6.70
2023-05-10T11:16:47.967Z,5.53
2023-05-10T11:19:16.521Z,6.57
2023-05-10T11:22:13.976Z,6.07
2023-05-10T11:24:40.430Z,7.53
2023-05-10T11:27:07.080Z,5.93
2023-05-10T11:29:33.679Z,6.70
2023-05-10T11:32:00.559Z,5.40
2023-05-10T11:34:32.091Z,7.97
2023-05-10T11:36:58.656Z,6.10
2023-05-10T11:39:32.561Z,5.60
2023-05-10T11:42:00.468Z,6.30
2023-05-10T11:44:31.332Z,4.80
2023-05-10T11:47:00.639Z,7.87
2023-05-10T11:49:27.122Z,6.90
2023-05-10T11:51:53.568Z,6.13
2023-05-10T11:54:20.015Z,6.77
2023-05-10T11:56:46.712Z,5.80
2023-05-10T11:59:15.676Z,7.03
2023-05-10T12:01:42.580Z,5.63
2023-05-10T12:04:09.190Z,7.43
2023-05-10T12:06:41.391Z,6.30
2023-05-10T12:09:09.127Z,6.00
2023-05-10T12:11:44.021Z,5.77
2023-05-10T12:14:11.632Z,4.87
2023-05-10T12:16:38.112Z,6.43
2023-05-10T12:19:04.703Z,5.90
2023-05-10T12:21:34.276Z,4.77
2023-05-10T12:24:02.897Z,4.93
2023-05-10T12:26:30.047Z,5.63
2023-05-10T12:29:12.809Z,6.83
2023-05-10T12:32:08.571Z,4.73
2023-05-10T12:34:37.019Z,5.00
2023-05-10T12:37:04.016Z,5.07
2023-05-10T12:39:44.306Z,6.73
2023-05-10T12:42:11.371Z,5.50
2023-05-10T12:44:37.898Z,4.20
2023-05-10T12:47:04.388Z,4.80
2023-05-10T12:49:30.883Z,7.97
2023-05-10T12:51:57.372Z,4.57
2023-05-10T12:54:23.855Z,5.70
2023-05-10T12:56:50.284Z,4.10
2023-05-10T12:59:16.753Z,4.13
2023-05-10T13:01:43.334Z,5.40
2023-05-10T13:04:10.002Z,4.87
2023-05-10T13:06:36.681Z,5.87
2023-05-10T13:09:03.324Z,4.47
2023-05-10T13:11:29.808Z,5.03
2023-05-10T13:13:56.541Z,4.80
2023-05-10T13:16:23.295Z,5.40
2023-05-10T13:18:49.822Z,4.80
2023-05-10T13:21:17.542Z,4.87
2023-05-10T13:23:43.984Z,4.63
2023-05-10T13:26:10.555Z,4.10
2023-05-10T13:28:37.026Z,4.57
2023-05-10T13:31:03.616Z,4.77
2023-05-10T13:33:30.094Z,5.03
2023-05-10T13:35:56.579Z,4.43
2023-05-10T13:38:23.096Z,4.60
2023-05-10T13:40:53.336Z,4.53
2023-05-10T13:43:20.257Z,5.50
2023-05-10T13:45:46.710Z,4.07
2023-05-10T13:48:13.182Z,4.90
2023-05-10T13:50:39.683Z,5.10
2023-05-10T13:53:06.331Z,6.50
2023-05-10T13:55:32.844Z,3.87
2023-05-10T13:57:59.296Z,3.57
2023-05-10T14:00:25.903Z,3.90
2023-05-10T14:02:52.415Z,3.23
2023-05-10T14:05:22.227Z,3.80
2023-05-10T14:07:51.840Z,3.77
2023-05-10T14:10:18.285Z,3.87
2023-05-10T14:12:44.835Z,8.23
2023-05-10T14:15:12.521Z,4.03
2023-05-10T14:17:39.060Z,3.47
2023-05-10T14:20:06.216Z,3.20
2023-05-10T14:22:32.875Z,2.63
2023-05-10T14:24:59.518Z,3.40
2023-05-10T14:27:26.057Z,3.07
2023-05-10T14:29:52.678Z,3.00
2023-05-10T14:32:19.189Z,2.83
2023-05-10T14:34:45.704Z,2.47
2023-05-10T14:37:12.683Z,2.90
2023-05-10T14:39:39.173Z,3.00
2023-05-10T14:42:05.746Z,3.43
2023-05-10T14:44:32.502Z,5.00
2023-05-10T14:46:59.056Z,3.03
2023-05-10T14:49:26.794Z,3.10
2023-05-10T14:51:53.325Z,3.60
2023-05-10T14:54:19.784Z,3.17
2023-05-10T14:56:46.262Z,3.10
2023-05-10T14:59:12.721Z,4.10
2023-05-10T15:01:42.144Z,3.57
2023-05-10T15:04:09.090Z,3.60
2023-05-10T15:06:36.396Z,3.50
2023-05-10T15:09:04.267Z,4.57
2023-05-10T15:11:30.806Z,4.40
2023-05-10T15:13:57.299Z,4.97
2023-05-10T15:16:23.816Z,3.60
2023-05-10T15:18:50.409Z,5.97
2023-05-10T15:21:16.904Z,4.40
2023-05-10T15:23:43.354Z,3.63
2023-05-10T15:26:09.817Z,9.00
2023-05-10T15:28:36.265Z,3.77
2023-05-10T15:31:02.758Z,3.97
2023-05-10T15:33:29.608Z,4.40
2023-05-10T15:35:56.119Z,5.43
2023-05-10T15:38:22.610Z,4.10
2023-05-10T15:40:49.078Z,3.57
2023-05-10T15:43:16.178Z,4.07
2023-05-10T15:45:42.652Z,3.57
2023-05-10T15:48:09.168Z,3.43
2023-05-10T15:50:35.661Z,3.77
2023-05-10T15:53:02.302Z,4.60
2023-05-10T15:55:28.868Z,3.67
2023-05-10T15:57:55.353Z,4.03
2023-05-10T16:00:21.975Z,4.40
2023-05-10T16:02:49.274Z,4.20
2023-05-10T16:05:16.845Z,3.70
2023-05-10T16:07:43.526Z,3.87
2023-05-10T16:10:10.977Z,3.73
2023-05-10T16:12:38.072Z,3.77
2023-05-10T16:15:05.129Z,3.73
2023-05-10T16:17:32.109Z,6.33
2023-05-10T16:19:58.638Z,3.17
2023-05-10T16:22:27.285Z,4.40
2023-05-10T16:24:53.888Z,3.23
2023-05-10T16:27:20.508Z,3.40
2023-05-10T16:29:47.656Z,3.00
2023-05-10T16:32:14.196Z,2.80
2023-05-10T16:34:40.653Z,2.97
2023-05-10T16:37:07.359Z,3.53
2023-05-10T16:39:33.879Z,2.67
2023-05-10T16:42:01.021Z,2.30
2023-05-10T16:44:27.536Z,2.60
2023-05-10T16:46:54.963Z,3.77
2023-05-10T16:49:22.265Z,4.83
2023-05-10T16:51:50.145Z,2.70
2023-05-10T16:54:17.254Z,2.27
2023-05-10T16:56:43.751Z,2.00
2023-05-10T16:59:10.223Z,3.10
2023-05-10T17:01:36.866Z,2.43
2023-05-10T17:04:03.573Z,4.47
2023-05-10T17:06:30.030Z,7.30
2023-05-10T17:08:57.182Z,2.67
2023-05-10T17:11:23.660Z,3.30
2023-05-10T17:13:51.908Z,3.77
2023-05-10T17:16:18.975Z,5.40
2023-05-10T17:18:45.829Z,2.03
2023-05-10T17:21:12.411Z,3.30
2023-05-10T17:23:38.881Z,2.33
2023-05-10T17:26:06.143Z,2.80
2023-05-10T17:28:32.694Z,2.40
2023-05-10T17:30:59.465Z,2.90
2023-05-10T17:33:25.970Z,2.40
2023-05-10T17:35:52.506Z,2.60
2023-05-10T17:38:18.948Z,3.20
2023-05-10T17:40:45.374Z,3.37
2023-05-10T17:43:11.807Z,2.77
2023-05-10T17:45:38.357Z,3.70
2023-05-10T17:48:04.952Z,3.30
2023-05-10T17:50:32.974Z,3.20
2023-05-10T17:52:59.429Z,3.93
2023-05-10T17:55:27.049Z,3.60
2023-05-10T17:57:53.679Z,3.30
2023-05-10T18:00:20.506Z,4.83
2023-05-10T18:02:47.010Z,4.20
2023-05-10T18:05:13.732Z,4.23
2023-05-10T18:07:40.518Z,4.50
2023-05-10T18:10:07.551Z,5.17
2023-05-10T18:12:34.027Z,7.13
2023-05-10T18:15:00.579Z,3.40
2023-05-10T18:17:27.088Z,4.70
2023-05-10T18:19:53.876Z,4.60
2023-05-10T18:22:20.352Z,6.13
2023-05-10T18:24:47.173Z,4.03
2023-05-10T18:27:13.981Z,3.53
2023-05-10T18:29:40.557Z,5.97
2023-05-10T18:32:07.007Z,6.30
2023-05-10T18:34:33.474Z,4.67
2023-05-10T18:36:59.958Z,3.80
2023-05-10T18:39:26.735Z,4.33
2023-05-10T18:41:53.656Z,3.80
2023-05-10T18:44:21.844Z,3.93
2023-05-10T18:46:48.305Z,6.43
2023-05-10T18:49:14.801Z,3.10
2023-05-10T18:51:41.276Z,4.83
2023-05-10T18:54:07.769Z,2.90
2023-05-10T18:56:34.235Z,2.90
2023-05-10T18:59:00.875Z,2.87
2023-05-10T19:01:27.413Z,2.03
2023-05-10T19:03:53.839Z,3.83
2023-05-10T19:06:20.744Z,3.67
2023-05-10T19:08:47.218Z,3.17
2023-05-10T19:11:13.717Z,2.67
2023-05-10T19:13:40.299Z,2.73
2023-05-10T19:16:12.664Z,2.30
2023-05-10T19:18:39.977Z,1.50
2023-05-10T19:21:07.672Z,2.13
2023-05-10T19:23:34.787Z,1.77
2023-05-10T19:26:01.610Z,1.93
2023-05-10T19:28:28.235Z,1.50
2023-05-10T19:30:54.733Z,4.20
2023-05-10T19:33:21.281Z,8.03
2023-05-10T19:35:49.858Z,1.60
2023-05-10T19:38:16.316Z,1.60
2023-05-10T19:40:43.255Z,2.37
2023-05-10T19:43:09.881Z,2.20
2023-05-10T19:45:38.932Z,1.53
2023-05-10T19:48:06.021Z,4.40
2023-05-10T19:50:32.552Z,2.70
2023-05-10T19:53:00.513Z,1.43
2023-05-10T19:55:29.521Z,1.40
2023-05-10T19:57:56.062Z,2.77
2023-05-10T20:00:22.790Z,1.80
2023-05-10T20:02:49.515Z,2.10
2023-05-10T20:05:16.229Z,1.93
2023-05-10T20:07:42.995Z,2.10
2023-05-10T20:10:10.635Z,2.00
2023-05-10T20:12:37.097Z,1.97
2023-05-10T20:15:06.296Z,6.90
2023-05-10T20:17:32.997Z,2.40
2023-05-10T20:19:59.616Z,4.63
2023-05-10T20:22:26.151Z,3.97
2023-05-10T20:24:54.403Z,4.47
2023-05-10T20:27:22.467Z,3.50
2023-05-10T20:29:48.926Z,2.70
2023-05-10T20:32:15.388Z,5.47
2023-05-10T20:34:41.813Z,4.13
2023-05-10T20:37:08.306Z,4.50
2023-05-10T20:39:34.782Z,3.50
2023-05-10T20:42:01.225Z,6.67
2023-05-10T20:44:27.683Z,5.67
2023-05-10T20:46:54.113Z,4.77
2023-05-10T20:49:20.575Z,2.97
2023-05-10T20:51:47.065Z,3.40
2023-05-10T20:54:14.506Z,4.43
2023-05-10T20:56:40.952Z,3.90
2023-05-10T20:59:07.387Z,9.20
2023-05-10T21:01:33.882Z,4.20
2023-05-10T21:04:00.461Z,6.00
2023-05-10T21:06:26.914Z,3.73
2023-05-10T21:08:53.344Z,4.23
2023-05-10T21:11:19.836Z,6.60
2023-05-10T21:13:46.296Z,4.40
2023-05-10T21:16:12.777Z,4.27
2023-05-10T21:18:39.298Z,3.83
2023-05-10T21:21:05.731Z,4.33
2023-05-10T21:23:33.906Z,4.20
2023-05-10T21:26:03.020Z,3.83
2023-05-10T21:28:29.468Z,3.77
2023-05-10T21:30:55.977Z,4.03
2023-05-10T21:33:22.635Z,3.90
2023-05-10T21:35:49.123Z,4.10
2023-05-10T21:38:15.687Z,4.60
2023-05-10T21:40:42.358Z,4.17
2023-05-10T21:43:09.575Z,4.50
2023-05-10T21:45:36.480Z,8.00
2023-05-10T21:48:03.668Z,5.80
2023-05-10T21:50:30.143Z,4.20
2023-05-10T21:52:56.679Z,5.87
2023-05-10T21:55:23.172Z,6.03
2023-05-10T21:57:50.464Z,6.30
2023-05-10T22:00:19.281Z,5.77
2023-05-10T22:02:46.578Z,5.93
2023-05-10T22:05:13.472Z,6.40
2023-05-10T22:07:40.044Z,6.60
2023-05-10T22:10:08.448Z,7.20
2023-05-10T22:12:34.897Z,5.97
2023-05-10T22:15:10.438Z,8.80
2023-05-10T22:17:38.713Z,5.63
2023-05-10T22:20:07.278Z,6.67
2023-05-10T22:22:33.756Z,7.57
2023-05-10T22:25:00.269Z,6.03
2023-05-10T22:27:26.734Z,6.70
2023-05-10T22:29:53.209Z,5.60
2023-05-10T22:32:19.772Z,6.10
2023-05-10T22:34:46.335Z,6.03
2023-05-10T22:37:15.318Z,6.00
2023-05-10T22:39:41.731Z,5.57
2023-05-10T22:42:08.192Z,5.63
2023-05-10T22:44:34.634Z,6.53
2023-05-10T22:47:01.173Z,6.00
2023-05-10T22:49:27.672Z,6.97
2023-05-10T22:51:54.157Z,6.63
2023-05-10T22:54:20.710Z,6.90
2023-05-10T22:56:47.169Z,5.73
2023-05-10T22:59:13.623Z,5.87
2023-05-10T23:01:40.110Z,5.87
2023-05-10T23:04:06.839Z,7.47
2023-05-10T23:06:33.363Z,6.70
2023-05-10T23:08:59.865Z,6.77
2023-05-10T23:11:26.329Z,8.10
2023-05-10T23:13:52.772Z,6.87
2023-05-10T23:16:19.235Z,6.73
2023-05-10T23:18:45.871Z,5.90
2023-05-10T23:21:12.352Z,7.20
2023-05-10T23:23:38.842Z,6.50
2023-05-10T23:26:05.409Z,8.50
2023-05-10T23:28:32.255Z,6.20
2023-05-10T23:30:58.745Z,6.63
2023-05-10T23:33:26.202Z,7.17
2023-05-10T23:35:53.904Z,6.80
2023-05-10T23:38:20.721Z,6.50
2023-05-10T23:40:50.756Z,6.43
2023-05-10T23:43:19.598Z,5.70
2023-05-10T23:45:56.484Z,5.30
2023-05-10T23:48:23.142Z,7.10
2023-05-10T23:50:50.089Z,5.40
2023-05-10T23:53:16.717Z,5.70
2023-05-10T23:55:43.282Z,6.87
2023-05-10T23:58:09.813Z,8.63
